createdAt,value
2018-03-20T00:00:02.339Z,43.14
2018-03-20T00:00:42.692Z,42.57
2018-03-20T00:01:23.041Z,42.76
2018-03-20T00:02:03.451Z,42.1
2018-03-20T00:02:43.853Z,41.91
2018-03-20T00:03:24.257Z,41.44
2018-03-20T00:04:04.625Z,41.44
2018-03-20T00:04:45.020Z,42.19
2018-03-20T00:05:25.449Z,42.1
2018-03-20T00:06:05.806Z,42.1
2018-03-20T00:06:46.205Z,41.82
2018-03-20T00:07:26.606Z,42.29
2018-03-20T00:08:07.007Z,42.29
2018-03-20T00:08:47.420Z,42.47
2018-03-20T00:09:27.837Z,42.1
2018-03-20T00:10:08.246Z,42.1
2018-03-20T00:10:48.619Z,41.82
2018-03-20T00:11:28.978Z,42.29
2018-03-20T00:12:09.370Z,42.29
2018-03-20T00:12:49.740Z,42.76
2018-03-20T00:13:30.165Z,42.76
2018-03-20T00:14:10.573Z,42.66
2018-03-20T00:14:50.914Z,42.85
2018-03-20T00:15:31.296Z,42.85
2018-03-20T00:16:11.726Z,42.85
2018-03-20T00:16:52.113Z,43.23
2018-03-20T00:17:32.502Z,44.46
2018-03-20T00:18:12.891Z,45.9
2018-03-20T00:18:53.314Z,46.37
2018-03-20T00:19:33.719Z,46.28
2018-03-20T00:20:14.221Z,46.09
2018-03-20T00:20:54.599Z,46
2018-03-20T00:21:34.931Z,45.9
2018-03-20T00:22:15.370Z,45.24
2018-03-20T00:22:55.765Z,45.34
2018-03-20T00:23:36.136Z,45.24
2018-03-20T00:24:16.526Z,44.39
2018-03-20T00:24:56.877Z,44.29
2018-03-20T00:25:37.249Z,44.58
2018-03-20T00:26:17.698Z,44.39
2018-03-20T00:26:57.980Z,43.26
2018-03-20T00:27:38.403Z,43.54
2018-03-20T00:28:18.776Z,44.29
2018-03-20T00:28:59.255Z,44.48
2018-03-20T00:29:39.569Z,44.86
2018-03-20T00:30:19.879Z,45.43
2018-03-20T00:31:00.367Z,45.53
2018-03-20T00:31:40.731Z,46.47
2018-03-20T00:32:21.099Z,47.04
2018-03-20T00:33:01.504Z,48.08
2018-03-20T00:33:41.934Z,48.08
2018-03-20T00:34:22.253Z,47.7
2018-03-20T00:35:02.623Z,46.28
2018-03-20T00:35:43.014Z,44.96
2018-03-20T00:36:23.414Z,45.34
2018-03-20T00:37:03.816Z,45.15
2018-03-20T00:37:44.200Z,44.48
2018-03-20T00:38:24.568Z,44.29
2018-03-20T00:39:04.995Z,44.29
2018-03-20T00:39:45.374Z,44.96
2018-03-20T00:40:25.820Z,46.09
2018-03-20T00:41:06.325Z,45.43
2018-03-20T00:41:46.619Z,45.34
2018-03-20T00:42:27.023Z,45.53
2018-03-20T00:43:07.457Z,45.05
2018-03-20T00:43:47.855Z,44.96
2018-03-20T00:44:28.241Z,45.05
2018-03-20T00:45:08.636Z,45.53
2018-03-20T00:45:49.065Z,45.24
2018-03-20T00:46:29.476Z,45.34
2018-03-20T00:47:09.827Z,45.15
2018-03-20T00:47:50.333Z,44.96
2018-03-20T00:48:30.643Z,44.2
2018-03-20T00:49:11.031Z,44.67
2018-03-20T00:49:51.435Z,44.58
2018-03-20T00:50:31.938Z,44.58
2018-03-20T00:51:12.190Z,45.05
2018-03-20T00:51:52.552Z,45.34
2018-03-20T00:52:32.989Z,45.05
2018-03-20T00:53:13.380Z,45.05
2018-03-20T00:53:53.739Z,44.86
2018-03-20T00:54:34.101Z,45.05
2018-03-20T00:55:14.598Z,46.75
2018-03-20T00:55:54.937Z,46.28
2018-03-20T00:56:35.281Z,46.85
2018-03-20T00:57:15.689Z,46.09
2018-03-20T00:57:56.078Z,45.9
2018-03-20T00:58:36.472Z,45.9
2018-03-20T00:59:16.919Z,45.43
2018-03-20T00:59:57.358Z,45.43
2018-03-20T01:00:37.742Z,45.9
2018-03-20T01:01:18.073Z,45.05
2018-03-20T01:01:58.678Z,44.96
2018-03-20T01:02:38.950Z,45.34
2018-03-20T01:03:19.332Z,46.4
2018-03-20T01:03:59.709Z,45.53
2018-03-20T01:04:40.269Z,44.96
2018-03-20T01:05:20.592Z,44.67
2018-03-20T01:06:00.967Z,44.67
2018-03-20T01:06:41.365Z,44.39
2018-03-20T01:07:21.738Z,44.77
2018-03-20T01:08:02.091Z,44.48
2018-03-20T01:08:42.625Z,44.96
2018-03-20T01:09:22.818Z,45.62
2018-03-20T01:10:03.256Z,46.37
2018-03-20T01:10:43.734Z,45.24
2018-03-20T01:11:24.145Z,44.86
2018-03-20T01:12:09.109Z,45.15
2018-03-20T01:12:51.107Z,45.24
2018-03-20T01:13:31.617Z,45.05
2018-03-20T01:14:13.300Z,44.67
2018-03-20T01:14:52.980Z,44.86
2018-03-20T01:15:34.039Z,45.05
2018-03-20T01:16:17.357Z,45.34
2018-03-20T01:16:58.032Z,45.72
2018-03-20T01:17:39.138Z,45.81
2018-03-20T01:18:20.050Z,46.66
2018-03-20T01:19:00.904Z,46.19
2018-03-20T01:19:40.989Z,46.66
2018-03-20T01:20:21.474Z,47.13
2018-03-20T01:21:01.759Z,47.04
2018-03-20T01:21:42.337Z,47.13
2018-03-20T01:22:22.681Z,47.04
2018-03-20T01:23:03.073Z,46.56
2018-03-20T01:23:43.446Z,46.47
2018-03-20T01:24:23.846Z,46.47
2018-03-20T01:25:04.314Z,46.47
2018-03-20T01:25:44.654Z,46.28
2018-03-20T01:26:25.161Z,46.21
2018-03-20T01:27:08.569Z,45.9
2018-03-20T01:27:48.857Z,46.37
2018-03-20T01:28:29.169Z,47.06
2018-03-20T01:29:09.597Z,46.66
2018-03-20T01:29:50.013Z,46.19
2018-03-20T01:30:30.441Z,45.81
2018-03-20T01:31:10.987Z,46.09
2018-03-20T01:31:51.273Z,46
2018-03-20T01:32:31.880Z,46.09
2018-03-20T01:33:12.086Z,46.28
2018-03-20T01:33:52.501Z,46.56
2018-03-20T01:34:33.013Z,47.13
2018-03-20T01:35:13.744Z,46.28
2018-03-20T01:35:54.149Z,46.28
2018-03-20T01:36:34.565Z,47.42
2018-03-20T01:37:15.013Z,47.7
2018-03-20T01:37:55.522Z,47.72
2018-03-20T01:38:35.863Z,47.53
2018-03-20T01:39:16.289Z,47.06
2018-03-20T01:39:56.591Z,46.31
2018-03-20T01:40:37.024Z,46.69
2018-03-20T01:41:17.500Z,46.97
2018-03-20T01:41:57.834Z,46.78
2018-03-20T01:42:38.224Z,46.21
2018-03-20T01:43:18.716Z,46.28
2018-03-20T01:43:59.054Z,46
2018-03-20T01:44:39.677Z,46.5
2018-03-20T01:45:19.969Z,46.47
2018-03-20T01:46:00.491Z,46.56
2018-03-20T01:46:40.884Z,45.9
2018-03-20T01:47:21.240Z,46.66
2018-03-20T01:48:01.652Z,46.75
2018-03-20T01:48:42.128Z,46.94
2018-03-20T01:49:22.477Z,46.75
2018-03-20T01:50:02.817Z,47.32
2018-03-20T01:50:43.336Z,47.13
2018-03-20T01:51:23.624Z,46.28
2018-03-20T01:52:04.020Z,46.75
2018-03-20T01:52:44.411Z,46.47
2018-03-20T01:53:24.697Z,46.75
2018-03-20T01:54:05.075Z,47.16
2018-03-20T01:54:45.523Z,47.25
2018-03-20T01:55:25.996Z,46.47
2018-03-20T01:56:06.282Z,47.51
2018-03-20T01:56:47.254Z,47.53
2018-03-20T01:57:27.490Z,47.44
2018-03-20T01:58:07.795Z,47.34
2018-03-20T01:58:48.265Z,47.06
2018-03-20T01:59:28.547Z,46.5
2018-03-20T02:00:09.053Z,47.16
2018-03-20T02:00:49.500Z,47.44
2018-03-20T02:01:29.898Z,47.53
2018-03-20T02:02:10.330Z,47.53
2018-03-20T02:02:50.817Z,47.44
2018-03-20T02:03:31.196Z,46.78
2018-03-20T02:04:11.655Z,47.16
2018-03-20T02:04:51.990Z,46.59
2018-03-20T02:05:32.430Z,46.4
2018-03-20T02:06:12.781Z,47.06
2018-03-20T02:06:53.201Z,46.21
2018-03-20T02:07:33.558Z,46.59
2018-03-20T02:08:14.012Z,47.06
2018-03-20T02:08:54.398Z,47.53
2018-03-20T02:09:34.885Z,47.06
2018-03-20T02:10:15.267Z,46.59
2018-03-20T02:10:55.600Z,46.88
2018-03-20T02:11:35.976Z,46.78
2018-03-20T02:12:16.370Z,46.8
2018-03-20T02:12:56.761Z,47.28
2018-03-20T02:13:37.237Z,46.99
2018-03-20T02:14:17.614Z,46.61
2018-03-20T02:14:57.954Z,46.33
2018-03-20T02:15:38.368Z,46.9
2018-03-20T02:16:18.834Z,46.04
2018-03-20T02:16:59.269Z,45.17
2018-03-20T02:17:39.813Z,46.31
2018-03-20T02:18:20.206Z,46.4
2018-03-20T02:19:00.675Z,46.02
2018-03-20T02:19:41.023Z,45.64
2018-03-20T02:20:21.618Z,46.02
2018-03-20T02:21:01.943Z,46.02
2018-03-20T02:21:42.405Z,46.21
2018-03-20T02:22:23.117Z,47.44
2018-03-20T02:23:03.397Z,47.06
2018-03-20T02:23:44.076Z,47.82
2018-03-20T02:24:24.701Z,47.53
2018-03-20T02:25:06.095Z,48.01
2018-03-20T02:25:46.602Z,47.53
2018-03-20T02:26:26.954Z,47.63
2018-03-20T02:27:07.329Z,47.06
2018-03-20T02:27:47.784Z,46.5
2018-03-20T02:28:28.207Z,47.16
2018-03-20T02:29:08.583Z,47.53
2018-03-20T02:29:48.944Z,47.82
2018-03-20T02:30:31.229Z,47.53
2018-03-20T02:31:11.515Z,47.72
2018-03-20T02:31:52.068Z,47.91
2018-03-20T02:32:32.451Z,46.97
2018-03-20T02:33:12.950Z,46.5
2018-03-20T02:41:42.036Z,48.55
2018-03-20T02:42:22.394Z,48.1
2018-03-20T02:43:02.776Z,48.27
2018-03-20T02:43:43.235Z,48.08
2018-03-20T02:44:23.610Z,48.08
2018-03-20T02:45:03.987Z,47.99
2018-03-20T02:45:44.381Z,47.99
2018-03-20T02:46:24.769Z,48.08
2018-03-20T02:47:05.200Z,48.18
2018-03-20T02:47:45.570Z,48.18
2018-03-20T02:48:25.957Z,48.65
2018-03-20T02:49:06.345Z,49.12
2018-03-20T02:49:46.731Z,49.31
2018-03-20T02:50:27.139Z,49.41
2018-03-20T02:51:07.593Z,49.12
2018-03-20T02:51:47.962Z,49.79
2018-03-20T02:52:28.346Z,49.88
2018-03-20T02:53:08.730Z,50.07
2018-03-20T02:53:49.128Z,49.88
2018-03-20T02:54:29.525Z,49.88
2018-03-20T02:55:09.927Z,49.31
2018-03-20T02:55:50.425Z,49.6
2018-03-20T02:56:30.776Z,49.03
2018-03-20T02:57:11.187Z,49.12
2018-03-20T02:57:51.611Z,49.41
2018-03-20T02:58:32.032Z,49.69
2018-03-20T02:59:12.461Z,50.16
2018-03-20T02:59:52.808Z,50.35
2018-03-20T03:00:33.238Z,50.45
2018-03-20T03:01:13.623Z,50.73
2018-03-20T03:01:54.031Z,51.3
2018-03-20T03:02:34.380Z,51.68
2018-03-20T03:03:14.812Z,50.92
2018-03-20T03:03:55.240Z,51.3
2018-03-20T03:04:35.629Z,51.39
2018-03-20T03:05:16.054Z,51.39
2018-03-20T03:05:56.396Z,50.54
2018-03-20T03:06:36.800Z,50.73
2018-03-20T03:07:17.207Z,50.82
2018-03-20T03:07:57.596Z,51.3
2018-03-20T03:08:38.013Z,50.73
2018-03-20T03:09:18.402Z,50.16
2018-03-20T03:09:58.776Z,50.16
2018-03-20T03:10:39.130Z,49.98
2018-03-20T03:11:19.599Z,50.54
2018-03-20T03:11:59.955Z,49.88
2018-03-20T03:12:40.348Z,49.98
2018-03-20T03:13:20.712Z,49.88
2018-03-20T03:14:01.098Z,49.98
2018-03-20T03:14:41.495Z,49.69
2018-03-20T03:15:21.941Z,50.09
2018-03-20T03:16:02.352Z,50.38
2018-03-20T03:16:42.724Z,50
2018-03-20T03:17:23.109Z,49.9
2018-03-20T03:18:03.469Z,49.43
2018-03-20T03:18:43.904Z,49.24
2018-03-20T03:19:24.260Z,48.86
2018-03-20T03:20:04.636Z,49.24
2018-03-20T03:20:45.037Z,50
2018-03-20T03:21:25.439Z,49.43
2018-03-20T03:22:05.825Z,49.9
2018-03-20T03:22:46.238Z,49.33
2018-03-20T03:23:26.646Z,49.33
2018-03-20T04:08:57.105Z,48.22
2018-03-20T04:46:44.752Z,54.93
2018-03-20T04:47:25.117Z,55.68
2018-03-20T04:48:05.473Z,55.21
2018-03-20T04:48:45.915Z,55.24
2018-03-20T04:49:26.296Z,54.83
2018-03-20T04:50:06.701Z,55.71
2018-03-20T04:50:47.066Z,55.33
2018-03-20T04:51:27.444Z,54.86
2018-03-20T04:52:07.849Z,54.1
2018-03-20T04:52:48.269Z,54.57
2018-03-20T04:53:28.679Z,54.47
2018-03-20T04:54:09.117Z,54.76
2018-03-20T04:54:49.452Z,54.57
2018-03-20T04:55:29.878Z,54.86
2018-03-20T04:56:10.309Z,54.38
2018-03-20T04:56:50.807Z,52.77
2018-03-20T04:57:31.199Z,52.68
2018-03-20T04:58:11.581Z,52.58
2018-03-20T04:58:51.989Z,53.06
2018-03-20T04:59:32.380Z,53.53
2018-03-20T05:00:12.787Z,54.19
2018-03-20T05:00:53.183Z,54.38
2018-03-20T05:01:33.636Z,54.28
2018-03-20T05:02:14.042Z,54.1
2018-03-20T05:02:54.398Z,53.34
2018-03-20T05:03:34.821Z,52.68
2018-03-20T05:04:15.233Z,53.81
2018-03-20T05:04:55.654Z,53.25
2018-03-20T05:05:36.164Z,52.87
2018-03-20T05:06:16.518Z,52.68
2018-03-20T05:06:56.972Z,52.96
2018-03-20T05:07:37.398Z,53.72
2018-03-20T05:08:17.758Z,53.44
2018-03-20T05:08:58.202Z,52.87
2018-03-20T05:09:38.594Z,53.34
2018-03-20T05:10:18.965Z,53.37
2018-03-20T05:10:59.439Z,53.56
2018-03-20T05:11:39.821Z,53.56
2018-03-20T05:12:20.243Z,52.8
2018-03-20T05:13:00.635Z,52.51
2018-03-20T05:13:41.030Z,52.04
2018-03-20T05:14:21.407Z,51.76
2018-03-20T05:15:01.815Z,50.81
2018-03-20T05:15:42.256Z,50.81
2018-03-20T05:16:22.668Z,51.57
2018-03-20T05:17:03.076Z,51.47
2018-03-20T05:17:43.467Z,50.9
2018-03-20T05:18:23.855Z,50.99
2018-03-20T05:19:04.253Z,50.9
2018-03-20T05:19:44.652Z,52.23
2018-03-20T05:20:25.051Z,52.7
2018-03-20T05:21:05.461Z,53.65
2018-03-20T05:21:45.899Z,51.28
2018-03-20T05:22:26.256Z,49.95
2018-03-20T05:23:06.638Z,49.29
2018-03-20T05:23:47.082Z,49.76
2018-03-20T05:24:27.493Z,49.86
2018-03-20T05:25:07.907Z,50.81
2018-03-20T05:25:48.278Z,50.15
2018-03-20T05:26:28.744Z,50.43
2018-03-20T05:27:09.123Z,50.62
2018-03-20T05:27:49.512Z,49.29
2018-03-20T05:28:29.935Z,49.95
2018-03-20T05:29:10.320Z,49.95
2018-03-20T05:29:50.724Z,49.38
2018-03-20T05:30:31.063Z,50.24
2018-03-20T05:31:11.475Z,51.76
2018-03-20T05:31:51.863Z,51.47
2018-03-20T05:32:32.322Z,50.9
2018-03-20T05:33:12.699Z,50.99
2018-03-20T05:33:53.093Z,51.95
2018-03-20T05:34:33.492Z,52.8
2018-03-20T05:35:13.922Z,52.04
2018-03-20T05:35:54.328Z,50.15
2018-03-20T05:36:34.711Z,50.05
2018-03-20T05:37:15.093Z,50.9
2018-03-20T05:37:55.438Z,51.47
2018-03-20T05:38:35.834Z,52.51
2018-03-20T05:39:16.392Z,52.89
2018-03-20T05:39:56.822Z,52.51
2018-03-20T05:40:37.113Z,51.76
2018-03-20T05:41:17.541Z,52.04
2018-03-20T05:41:57.928Z,52.8
2018-03-20T05:42:38.368Z,54.5
2018-03-20T05:43:18.708Z,54.13
2018-03-20T05:43:59.107Z,54.5
2018-03-20T05:44:39.524Z,55.36
2018-03-20T05:45:19.883Z,55.93
2018-03-20T05:46:00.285Z,56.3
2018-03-20T05:46:40.742Z,56.4
2018-03-20T05:47:21.109Z,56.49
2018-03-20T05:48:01.487Z,56.78
2018-03-20T05:48:41.841Z,56.78
2018-03-20T05:49:22.257Z,57.06
2018-03-20T05:50:02.730Z,57.54
2018-03-20T05:50:43.037Z,57.06
2018-03-20T05:51:23.449Z,57.25
2018-03-20T05:52:03.827Z,57.92
2018-03-20T05:52:44.273Z,57.64
2018-03-20T05:53:24.865Z,57.44
2018-03-20T05:54:22.445Z,58.01
2018-03-20T05:55:02.852Z,59.34
2018-03-20T05:55:43.259Z,59.53
2018-03-20T05:56:23.702Z,59.81
2018-03-20T05:57:04.103Z,60.38
2018-03-20T05:57:44.484Z,60.1
2018-03-20T05:58:24.878Z,60
2018-03-20T05:59:05.295Z,60.1
2018-03-20T05:59:45.675Z,60.19
2018-03-20T06:00:26.028Z,60
2018-03-20T06:01:06.457Z,60.28
2018-03-20T06:01:46.823Z,60.83
2018-03-20T06:02:27.205Z,61.33
2018-03-20T06:03:07.614Z,61.24
2018-03-20T06:03:48.010Z,60.64
2018-03-20T06:04:28.415Z,62.28
2018-03-20T06:05:08.836Z,62.37
2018-03-20T06:05:49.297Z,62.18
2018-03-20T06:06:29.731Z,62.24
2018-03-20T06:07:10.094Z,62.66
2018-03-20T06:07:50.499Z,62.43
2018-03-20T06:08:30.930Z,62.85
2018-03-20T06:09:11.324Z,62.85
2018-03-20T06:09:51.749Z,63.42
2018-03-20T06:10:32.117Z,62.53
2018-03-20T06:11:12.511Z,62.53
2018-03-20T06:11:52.926Z,63.01
2018-03-20T06:12:33.293Z,63.13
2018-03-20T06:13:13.735Z,62.15
2018-03-20T06:13:54.140Z,62.53
2018-03-20T06:14:34.524Z,63.1
2018-03-20T06:15:14.963Z,63.48
2018-03-20T06:15:55.435Z,63.29
2018-03-20T06:16:35.849Z,63.2
2018-03-20T06:17:16.233Z,63.57
2018-03-20T06:17:56.737Z,63.2
2018-03-20T06:18:37.142Z,63.2
2018-03-20T06:19:17.591Z,63.32
2018-03-20T06:19:58.201Z,64.17
2018-03-20T06:20:38.495Z,63.79
2018-03-20T06:21:18.852Z,63.32
2018-03-20T06:21:59.244Z,62.56
2018-03-20T06:22:39.615Z,62.85
2018-03-20T06:23:20.046Z,62.85
2018-03-20T06:24:00.631Z,62.56
2018-03-20T06:24:40.827Z,62.75
2018-03-20T06:25:21.208Z,62.18
2018-03-20T06:26:01.667Z,62.18
2018-03-20T06:26:42.023Z,62.47
2018-03-20T06:27:22.579Z,62.08
2018-03-20T06:28:06.201Z,62.18
2018-03-20T06:28:44.495Z,62.47
2018-03-20T06:29:24.980Z,62.28
2018-03-20T06:30:05.348Z,61.99
2018-03-20T06:30:45.759Z,61.8
2018-03-20T06:31:26.177Z,61.71
2018-03-20T06:32:06.530Z,62.08
2018-03-20T06:32:47.035Z,62.37
2018-03-20T06:33:27.358Z,62.37
2018-03-20T06:34:07.733Z,62.37
2018-03-20T06:34:48.139Z,62.66
2018-03-20T06:35:28.568Z,62.18
2018-03-20T06:36:08.928Z,62.18
2018-03-20T06:36:49.333Z,62.18
2018-03-20T06:37:29.725Z,62.56
2018-03-20T06:38:10.140Z,62.08
2018-03-20T06:38:50.818Z,62.47
2018-03-20T06:39:31.234Z,62.66
2018-03-20T06:40:11.660Z,62.37
2018-03-20T06:40:52.026Z,62.18
2018-03-20T06:41:32.421Z,62.28
2018-03-20T06:42:12.842Z,62.18
2018-03-20T06:42:53.271Z,62.28
2018-03-20T06:43:33.635Z,62.85
2018-03-20T06:44:14.040Z,62.94
2018-03-20T06:44:54.449Z,62.85
2018-03-20T06:45:34.935Z,62.85
2018-03-20T06:46:15.280Z,62.75
2018-03-20T06:46:55.724Z,62.08
2018-03-20T06:47:36.107Z,62.28
2018-03-20T06:48:16.518Z,62.28
2018-03-20T06:48:56.887Z,62.47
2018-03-20T06:49:37.295Z,63.32
2018-03-20T06:50:17.700Z,63.32
2018-03-20T06:50:58.081Z,63.13
2018-03-20T06:51:39.524Z,64.17
2018-03-20T06:52:19.080Z,63.79
2018-03-20T06:53:00.565Z,64.36
2018-03-20T06:53:40.493Z,64.36
2018-03-20T06:54:21.156Z,64.84
2018-03-20T06:55:01.479Z,65.12
2018-03-20T06:55:42.151Z,65.31
2018-03-20T06:56:22.658Z,65.69
2018-03-20T06:57:03.130Z,66.54
2018-03-20T06:57:44.555Z,66.45
2018-03-20T06:58:24.358Z,66.45
2018-03-20T06:59:05.124Z,66.45
2018-03-20T06:59:45.721Z,66.26
2018-03-20T07:00:26.229Z,66.26
2018-03-20T07:01:06.819Z,65.69
2018-03-20T07:01:47.497Z,65.69
2018-03-20T07:02:29.013Z,66.07
2018-03-20T07:03:08.976Z,66.16
2018-03-20T07:03:49.396Z,66.26
2018-03-20T07:04:29.869Z,66.64
2018-03-20T07:05:10.372Z,66.07
2018-03-20T07:05:50.738Z,66.54
2018-03-20T07:06:31.123Z,66.54
2018-03-20T07:07:11.515Z,66.35
2018-03-20T07:07:51.948Z,66.07
2018-03-20T07:08:32.369Z,65.69
2018-03-20T07:09:12.736Z,66.64
2018-03-20T07:09:53.170Z,66.07
2018-03-20T07:10:33.516Z,65.88
2018-03-20T07:11:13.916Z,66.64
2018-03-20T07:11:54.297Z,66.45
2018-03-20T07:12:34.719Z,66.54
2018-03-20T07:13:15.115Z,66.35
2018-03-20T07:13:55.465Z,66.54
2018-03-20T07:14:35.944Z,66.26
2018-03-20T07:15:16.395Z,66.26
2018-03-20T07:15:56.857Z,66.07
2018-03-20T07:16:37.214Z,65.69
2018-03-20T07:17:17.655Z,65.78
2018-03-20T07:17:58.068Z,65.59
2018-03-20T07:18:38.467Z,65.53
2018-03-20T07:19:18.822Z,65.44
2018-03-20T07:19:59.249Z,65.12
2018-03-20T07:20:39.634Z,65.22
2018-03-20T07:21:20.054Z,65.06
2018-03-20T07:22:00.538Z,65.03
2018-03-20T07:22:41.258Z,65.41
2018-03-20T07:23:22.004Z,65.5
2018-03-20T07:24:02.160Z,65.31
2018-03-20T07:24:42.590Z,65.41
2018-03-20T07:25:22.970Z,65.22
2018-03-20T07:26:03.460Z,65.82
2018-03-20T07:26:43.875Z,65.82
2018-03-20T07:27:24.205Z,65.44
2018-03-20T07:28:04.613Z,64.97
2018-03-20T07:28:45.004Z,65.06
2018-03-20T07:29:25.368Z,65.06
2018-03-20T07:30:06.009Z,64.87
2018-03-20T07:30:46.406Z,64.97
2018-03-20T07:31:26.780Z,65.25
2018-03-20T07:32:07.206Z,64.87
2018-03-20T07:32:47.598Z,64.4
2018-03-20T07:33:28.049Z,64.3
2018-03-20T07:34:08.546Z,63.45
2018-03-20T07:34:48.988Z,64.01
2018-03-20T07:35:29.480Z,63.92
2018-03-20T07:36:09.839Z,63.92
2018-03-20T07:36:50.245Z,64.3
2018-03-20T07:37:30.687Z,64.4
2018-03-20T07:38:11.080Z,64.49
2018-03-20T07:38:51.458Z,64.49
2018-03-20T07:39:31.925Z,64.87
2018-03-20T07:40:12.296Z,64.87
2018-03-20T07:40:52.718Z,65.34
2018-03-20T07:41:33.246Z,65.16
2018-03-20T07:42:13.651Z,65.34
2018-03-20T07:42:54.065Z,65.06
2018-03-20T07:43:34.501Z,65.44
2018-03-20T07:44:14.893Z,65.53
2018-03-20T07:46:04.807Z,64.59
2018-03-20T07:46:45.224Z,64.3
2018-03-20T07:47:26.215Z,64.9
2018-03-20T07:48:06.638Z,64.71
2018-03-20T07:48:47.112Z,64.43
2018-03-20T07:49:28.336Z,64.43
2018-03-20T07:50:09.786Z,64.43
2018-03-20T07:50:50.152Z,64.05
2018-03-20T07:51:31.222Z,63.76
2018-03-20T07:52:11.809Z,63.57
2018-03-20T07:52:52.299Z,62.72
2018-03-20T07:53:33.831Z,63.01
2018-03-20T07:54:13.991Z,62.82
2018-03-20T07:54:55.391Z,62.72
2018-03-20T07:55:36.325Z,63.23
2018-03-20T07:56:16.773Z,63.01
2018-03-20T07:56:57.172Z,63.48
2018-03-20T07:57:38.086Z,63.57
2018-03-20T07:58:20.062Z,64.08
2018-03-20T07:59:00.948Z,63.39
2018-03-20T07:59:41.325Z,63.32
2018-03-20T08:00:21.601Z,62.94
2018-03-20T08:01:02.183Z,62.27
2018-03-20T08:01:43.722Z,62.18
2018-03-20T08:02:25.010Z,62.56
2018-03-20T08:03:06.698Z,62.37
2018-03-20T08:03:46.860Z,62.18
2018-03-20T08:04:28.399Z,62.18
2018-03-20T08:05:08.901Z,62.46
2018-03-20T08:05:49.663Z,62.37
2018-03-20T08:06:30.394Z,62.37
2018-03-20T08:07:12.552Z,62.27
2018-03-20T08:07:52.881Z,62.37
2018-03-20T08:08:33.592Z,61.99
2018-03-20T08:09:14.638Z,62.46
2018-03-20T08:09:54.978Z,62.66
2018-03-20T08:10:35.555Z,62.18
2018-03-20T08:11:16.490Z,62.66
2018-03-20T08:11:58.299Z,62.66
2018-03-20T08:12:38.784Z,62.4
2018-03-20T08:13:19.197Z,62.02
2018-03-20T08:13:59.537Z,62.08
2018-03-20T08:14:40.135Z,62.18
2018-03-20T08:17:02.047Z,61.93
2018-03-20T08:17:42.323Z,62.12
2018-03-20T08:18:22.641Z,62.69
2018-03-20T08:19:03.572Z,62.12
2018-03-20T08:19:45.058Z,61.65
2018-03-20T08:20:25.214Z,61.07
2018-03-20T08:21:06.724Z,60.98
2018-03-20T08:21:47.678Z,60.63
2018-03-20T08:22:28.969Z,60.53
2018-03-20T08:23:08.764Z,60.25
2018-03-20T08:23:49.333Z,59.77
2018-03-20T08:24:29.794Z,59.96
2018-03-20T08:25:10.505Z,59.96
2018-03-20T08:25:51.008Z,59.3
2018-03-20T08:26:31.756Z,59.68
2018-03-20T08:27:12.920Z,59.96
2018-03-20T08:27:53.357Z,59.68
2018-03-20T08:28:34.182Z,60.25
2018-03-20T08:29:15.062Z,60.06
2018-03-20T08:29:55.809Z,60.35
2018-03-20T08:30:37.061Z,60.16
2018-03-20T08:31:17.623Z,60.06
2018-03-20T08:31:58.010Z,59.96
2018-03-20T08:32:38.494Z,60.44
2018-03-20T08:33:19.286Z,60.35
2018-03-20T08:33:59.979Z,60.53
2018-03-20T08:34:40.585Z,60.91
2018-03-20T08:35:21.862Z,61.1
2018-03-20T08:36:04.064Z,61.58
2018-03-20T08:39:06.327Z,62.05
2018-03-20T08:39:47.147Z,62.12
2018-03-20T08:40:27.555Z,62.05
2018-03-20T08:41:08.648Z,61.93
2018-03-20T08:41:49.316Z,62.43
2018-03-20T08:42:30.425Z,62.31
2018-03-20T08:43:11.101Z,62.21
2018-03-20T08:43:53.370Z,62.21
2018-03-20T08:44:33.867Z,62.21
2018-03-20T08:45:15.761Z,62.31
2018-03-20T08:45:56.338Z,62.59
2018-03-20T08:46:36.984Z,62.4
2018-03-20T08:47:19.417Z,62.78
2018-03-20T08:47:59.041Z,63.07
2018-03-20T08:48:41.227Z,62.4
2018-03-20T08:49:21.869Z,62.62
2018-03-20T08:50:02.152Z,62.4
2018-03-20T08:50:44.015Z,62.72
2018-03-20T08:51:26.678Z,62.53
2018-03-20T08:52:07.739Z,62.91
2018-03-20T08:52:48.803Z,62.5
2018-03-20T08:53:29.927Z,62.69
2018-03-20T08:54:12.087Z,62.78
2018-03-20T08:54:53.353Z,63.45
2018-03-20T08:55:34.002Z,63.73
2018-03-20T08:56:14.885Z,63.73
2018-03-20T08:56:55.083Z,64.21
2018-03-20T08:57:36.028Z,63.73
2018-03-20T08:58:16.542Z,63.54
2018-03-20T08:58:56.927Z,64.02
2018-03-20T08:59:37.603Z,64.02
2018-03-20T09:00:18.315Z,64.4
2018-03-20T09:00:59.829Z,64.3
2018-03-20T09:01:40.174Z,64.69
2018-03-20T09:02:20.748Z,64.87
2018-03-20T09:03:01.743Z,64.84
2018-03-20T09:03:42.381Z,65.54
2018-03-20T09:04:23.050Z,65.41
2018-03-20T09:05:03.698Z,65.79
2018-03-20T09:05:46.285Z,65.69
2018-03-20T09:06:26.793Z,65.79
2018-03-20T09:07:09.613Z,66.64
2018-03-20T09:10:31.584Z,66.55
2018-03-20T09:11:14.330Z,66.46
2018-03-20T09:11:54.145Z,67.02
2018-03-20T09:12:35.104Z,66.64
2018-03-20T09:13:16.367Z,66.55
2018-03-20T09:13:56.374Z,66.39
2018-03-20T09:14:36.889Z,65.92
2018-03-20T09:15:17.172Z,65.82
2018-03-20T09:15:57.684Z,65.92
2018-03-20T09:16:38.160Z,65.73
2018-03-20T09:17:18.561Z,65.54
2018-03-20T09:17:59.186Z,65.16
2018-03-20T09:18:39.562Z,65.25
2018-03-20T09:19:20.227Z,64.78
2018-03-20T09:20:00.733Z,64.87
2018-03-20T09:20:41.750Z,64.49
2018-03-20T09:21:22.127Z,64.4
2018-03-20T09:22:02.573Z,64.59
2018-03-20T09:22:43.521Z,64.24
2018-03-20T09:23:23.989Z,64.24
2018-03-20T09:24:04.628Z,64.24
2018-03-20T09:24:45.274Z,63.48
2018-03-20T09:25:26.111Z,63.01
2018-03-20T09:26:06.353Z,62.72
2018-03-20T09:26:46.717Z,62.81
2018-03-20T09:27:27.169Z,62.72
2018-03-20T09:28:07.577Z,62.91
2018-03-20T09:28:48.369Z,62.81
2018-03-20T09:29:28.681Z,62.43
2018-03-20T09:30:09.037Z,62.53
2018-03-20T09:30:51.526Z,62.37
2018-03-20T09:31:35.110Z,61.99
2018-03-20T09:32:15.663Z,62.08
2018-03-20T09:32:56.123Z,62.18
2018-03-20T09:33:36.530Z,62.18
2018-03-20T09:34:16.981Z,62.18
2018-03-20T09:34:57.528Z,61.9
2018-03-20T09:35:38.034Z,61.9
2018-03-20T09:36:18.431Z,61.04
2018-03-20T09:36:58.859Z,60.94
2018-03-20T09:37:39.308Z,60.97
2018-03-20T09:38:19.944Z,60.88
2018-03-20T09:39:00.347Z,61.16
2018-03-20T09:39:41.049Z,61.16
2018-03-20T09:40:21.433Z,61.16
2018-03-20T09:41:02.121Z,60.41
2018-03-20T09:41:42.599Z,60.02
2018-03-20T09:42:23.395Z,60.02
2018-03-20T09:43:04.064Z,60.88
2018-03-20T09:43:44.601Z,60.12
2018-03-20T09:44:24.995Z,59.83
2018-03-20T09:45:05.817Z,60.41
2018-03-20T09:45:46.826Z,60.53
2018-03-20T09:46:27.304Z,60.24
2018-03-20T09:47:07.800Z,59.58
2018-03-20T09:47:48.250Z,59.23
2018-03-20T09:48:28.854Z,59.32
2018-03-20T09:49:09.245Z,58.78
2018-03-20T09:49:49.797Z,57.64
2018-03-20T09:50:30.183Z,56.78
2018-03-20T09:51:11.216Z,56.43
2018-03-20T09:51:51.672Z,54.9
2018-03-20T09:52:32.047Z,55.09
2018-03-20T09:53:13.085Z,53.95
2018-03-20T09:53:53.756Z,53.21
2018-03-20T09:54:34.216Z,52.64
2018-03-20T09:55:15.274Z,52
2018-03-20T09:55:55.887Z,51.04
2018-03-20T09:56:36.181Z,50.02
2018-03-20T09:57:16.737Z,49.73
2018-03-20T09:57:57.462Z,49.47
2018-03-20T09:58:37.817Z,48.71
2018-03-20T09:59:18.597Z,48.23
2018-03-20T09:59:58.991Z,48.04
2018-03-20T10:00:39.849Z,47.87
2018-03-20T10:01:20.356Z,47.37
2018-03-20T10:02:00.995Z,47.97
2018-03-20T10:02:42.822Z,47.58
2018-03-20T10:03:23.589Z,48.04
2018-03-20T10:04:04.107Z,48.04
2018-03-20T10:04:45.020Z,47.66
2018-03-20T10:05:25.160Z,48.04
2018-03-20T10:06:05.979Z,47.75
2018-03-20T10:06:46.444Z,48.11
2018-03-20T10:07:27.360Z,48.13
2018-03-20T10:08:09.961Z,48.8
2018-03-20T10:08:49.585Z,47.82
2018-03-20T10:09:31.796Z,48.68
2018-03-20T10:47:24.122Z,44.62
2018-03-20T10:48:09.741Z,43.98
2018-03-20T10:48:57.111Z,43.02
2018-03-20T10:54:10.656Z,42.69
2018-03-20T10:57:26.100Z,42.69
2018-03-20T10:58:05.838Z,42.6
2018-03-20T10:58:49.273Z,42.6
2018-03-20T10:59:29.397Z,42.43
2018-03-20T11:00:09.819Z,41.85
2018-03-20T11:00:50.105Z,41.28
2018-03-20T11:01:31.198Z,41.18
2018-03-20T11:02:11.632Z,41.11
2018-03-20T11:02:52.792Z,41.11
2018-03-20T11:03:38.900Z,39.96
2018-03-20T11:04:20.648Z,39.86
2018-03-20T11:05:03.711Z,40.63
2018-03-20T11:05:44.088Z,39.89
2018-03-20T11:06:28.987Z,39.22